createdAt,value
2023-04-03T00:01:08.095Z,5.40
2023-04-03T00:03:36.622Z,7.80
2023-04-03T00:06:04.543Z,7.65
2023-04-03T00:08:33.540Z,11.75
2023-04-03T00:11:00.718Z,4.85
2023-04-03T00:13:28.587Z,4.13
2023-04-03T00:15:56.176Z,4.03
2023-04-03T00:18:24.017Z,4.40
2023-04-03T00:20:51.471Z,7.30
2023-04-03T00:23:19.071Z,7.60
2023-04-03T00:25:46.182Z,6.57
2023-04-03T00:28:13.785Z,5.07
2023-04-03T00:30:41.148Z,6.78
2023-04-03T00:33:12.585Z,4.97
2023-04-03T00:35:40.556Z,3.05
2023-04-03T00:38:08.482Z,5.10
2023-04-03T00:40:38.505Z,5.03
2023-04-03T00:43:27.479Z,7.35
2023-04-03T00:45:56.836Z,5.72
2023-04-03T00:48:28.457Z,5.45
2023-04-03T00:50:55.971Z,6.68
2023-04-03T00:53:27.843Z,4.97
2023-04-03T00:55:56.883Z,3.05
2023-04-03T00:58:34.610Z,3.22
2023-04-03T01:01:06.894Z,4.45
2023-04-03T01:03:34.528Z,1.65
2023-04-03T01:08:32.063Z,2.35
2023-04-03T01:10:59.187Z,4.30
2023-04-03T01:13:32.473Z,2.92
2023-04-03T01:16:06.930Z,3.30
2023-04-03T01:18:37.177Z,2.83
2023-04-03T01:24:00.445Z,2.00
2023-04-03T01:26:29.249Z,8.60
2023-04-03T01:28:56.762Z,4.55
2023-04-03T01:31:32.310Z,3.30
2023-04-03T01:34:00.304Z,3.78
2023-04-03T01:36:31.041Z,5.28
2023-04-03T01:39:00.746Z,3.97
2023-04-03T01:41:29.104Z,2.58
2023-04-03T01:44:04.876Z,3.17
2023-04-03T01:46:32.777Z,2.83
2023-04-03T01:49:00.309Z,4.72
2023-04-03T01:51:27.378Z,5.78
2023-04-03T01:53:54.859Z,3.30
2023-04-03T01:56:22.144Z,4.40
2023-04-03T01:58:49.942Z,3.33
2023-04-03T02:01:18.663Z,4.32
2023-04-03T02:03:46.170Z,7.15
2023-04-03T02:06:13.307Z,2.50
2023-04-03T02:08:41.341Z,1.40
2023-04-03T02:11:08.547Z,2.72
2023-04-03T02:13:36.233Z,5.07
2023-04-03T02:16:12.281Z,4.68
2023-04-03T02:18:40.333Z,3.90
2023-04-03T02:21:07.545Z,1.27
2023-04-03T02:23:37.678Z,2.03
2023-04-03T02:28:37.350Z,5.05
2023-04-03T02:31:05.378Z,1.55
2023-04-03T02:33:33.266Z,5.18
2023-04-03T02:36:00.853Z,3.63
2023-04-03T02:38:28.668Z,3.50
2023-04-03T02:41:02.015Z,2.95
2023-04-03T02:43:29.851Z,2.50
2023-04-03T02:45:56.848Z,6.43
2023-04-03T02:48:24.712Z,5.47
2023-04-03T02:50:52.007Z,1.60
2023-04-03T02:53:19.980Z,2.53
2023-04-03T02:55:50.750Z,2.00
2023-04-03T02:58:18.315Z,4.03
2023-04-03T03:00:45.619Z,4.53
2023-04-03T03:03:14.690Z,4.82
2023-04-03T03:05:41.898Z,2.70
2023-04-03T03:08:09.231Z,2.63
2023-04-03T03:10:39.279Z,11.02
2023-04-03T03:13:08.488Z,4.35
2023-04-03T03:15:35.464Z,4.45
2023-04-03T03:18:03.638Z,1.95
2023-04-03T03:20:30.881Z,3.92
2023-04-03T03:22:59.288Z,6.57
2023-04-03T03:25:26.387Z,5.15
2023-04-03T03:27:53.687Z,4.65
2023-04-03T03:30:21.128Z,4.13
2023-04-03T03:32:48.531Z,2.67
2023-04-03T03:35:15.859Z,2.88
2023-04-03T03:37:43.406Z,3.40
2023-04-03T03:40:12.193Z,5.75
2023-04-03T03:42:39.737Z,5.37
2023-04-03T03:45:07.697Z,5.72
2023-04-03T03:47:35.072Z,5.25
2023-04-03T03:50:03.596Z,6.75
2023-04-03T03:52:31.232Z,3.25
2023-04-03T03:54:58.333Z,3.03
2023-04-03T03:57:27.924Z,2.58
2023-04-03T03:59:55.462Z,7.00
2023-04-03T04:02:22.894Z,3.97
2023-04-03T04:04:50.237Z,5.18
2023-04-03T04:07:17.722Z,2.08
2023-04-03T04:09:44.898Z,6.20
2023-04-03T04:12:12.314Z,2.63
2023-04-03T04:14:39.718Z,3.55
2023-04-03T04:17:10.150Z,6.18
2023-04-03T04:19:37.826Z,3.97
2023-04-03T04:22:05.744Z,3.88
2023-04-03T04:24:33.922Z,3.92
2023-04-03T04:27:03.059Z,6.18
2023-04-03T04:29:36.747Z,3.55
2023-04-03T04:32:05.643Z,2.17
2023-04-03T04:34:32.888Z,2.40
2023-04-03T04:37:01.943Z,3.37
2023-04-03T04:39:29.949Z,3.75
2023-04-03T04:41:59.146Z,2.13
2023-04-03T04:44:28.510Z,2.13
2023-04-03T04:46:55.971Z,3.67
2023-04-03T04:49:22.989Z,3.55
2023-04-03T04:51:52.307Z,4.38
2023-04-03T04:54:24.408Z,3.63
2023-04-03T04:56:52.853Z,2.45
2023-04-03T04:59:21.941Z,3.72
2023-04-03T05:04:18.397Z,7.47
2023-04-03T05:06:50.200Z,2.03
2023-04-03T05:09:22.519Z,3.90
2023-04-03T05:11:51.617Z,5.00
2023-04-03T05:14:21.781Z,3.63
2023-04-03T05:16:53.813Z,2.45
2023-04-03T05:19:23.487Z,3.22
2023-04-03T05:21:52.186Z,20.90
2023-04-03T05:24:19.622Z,35.42
2023-04-03T05:26:46.850Z,46.80
2023-04-03T05:29:15.329Z,33.50
2023-04-03T05:31:42.985Z,34.08
2023-04-03T05:34:12.039Z,32.40
2023-04-03T05:36:41.081Z,97.00
2023-04-03T05:39:09.828Z,61.20
2023-04-03T05:41:40.338Z,48.53
2023-04-03T05:44:07.491Z,10.30
2023-04-03T05:46:34.939Z,53.28
2023-04-03T05:49:05.444Z,8.45
2023-04-03T05:51:37.609Z,74.85
2023-04-03T05:54:24.358Z,6.57
2023-04-03T05:56:55.702Z,34.13
2023-04-03T05:59:23.567Z,35.72
2023-04-03T06:01:53.425Z,31.20
2023-04-03T06:04:22.155Z,83.72
2023-04-03T06:06:55.651Z,13.60
2023-04-03T06:09:25.710Z,22.60
2023-04-03T06:11:53.836Z,12.48
2023-04-03T06:16:50.579Z,36.08
2023-04-03T06:19:18.027Z,21.17
2023-04-03T06:21:51.444Z,4.30
2023-04-03T06:24:20.888Z,3.55
2023-04-03T06:26:49.832Z,62.38
2023-04-03T06:29:16.863Z,59.53
2023-04-03T06:31:44.723Z,71.82
2023-04-03T06:34:12.847Z,77.53
2023-04-03T06:36:41.068Z,69.63
2023-04-03T06:39:08.135Z,44.90
2023-04-03T06:41:37.149Z,84.63
2023-04-03T06:44:04.660Z,6.47
2023-04-03T06:46:32.015Z,8.07
2023-04-03T06:48:59.095Z,29.13
2023-04-03T06:51:29.132Z,61.25
2023-04-03T06:53:58.722Z,6.65
2023-04-03T06:56:27.374Z,24.38
2023-04-03T06:58:57.191Z,13.65
2023-04-03T07:01:28.773Z,4.20
2023-04-03T07:03:56.471Z,7.30
2023-04-03T07:06:24.321Z,8.05
2023-04-03T07:08:51.442Z,9.48
2023-04-03T07:11:18.826Z,4.88
2023-04-03T07:13:45.975Z,4.68
2023-04-03T07:16:13.647Z,3.53
2023-04-03T07:18:40.990Z,4.10
2023-04-03T07:21:08.318Z,1.60
2023-04-03T07:23:35.397Z,2.60
2023-04-03T07:26:02.938Z,1.98
2023-04-03T07:28:30.725Z,4.25
2023-04-03T07:31:04.334Z,2.67
2023-04-03T07:33:32.093Z,3.83
2023-04-03T07:35:59.643Z,1.42
2023-04-03T07:38:26.818Z,2.40
2023-04-03T07:40:54.193Z,3.70
2023-04-03T07:43:23.040Z,4.90
2023-04-03T07:45:51.832Z,1.95
2023-04-03T07:48:21.472Z,1.60
2023-04-03T07:53:16.495Z,3.70
2023-04-03T07:55:44.133Z,2.53
2023-04-03T07:58:13.159Z,4.63
2023-04-03T08:00:41.005Z,3.60
2023-04-03T08:03:11.314Z,2.80
2023-04-03T08:05:42.433Z,1.75
2023-04-03T08:08:12.137Z,7.28
2023-04-03T08:10:40.066Z,2.90
2023-04-03T08:13:07.919Z,4.03
2023-04-03T08:15:36.170Z,1.77
2023-04-03T08:18:03.875Z,3.17
2023-04-03T08:20:31.304Z,4.90
2023-04-03T08:22:58.519Z,2.60
2023-04-03T08:25:26.148Z,2.28
2023-04-03T08:27:54.109Z,0.80
2023-04-03T08:30:21.648Z,6.57
2023-04-03T08:32:49.185Z,9.00
2023-04-03T08:35:16.668Z,3.30
2023-04-03T08:37:43.664Z,1.45
2023-04-03T08:40:16.086Z,3.25
2023-04-03T08:43:00.563Z,1.83
2023-04-03T08:45:53.675Z,2.33
2023-04-03T08:48:28.815Z,3.58
2023-04-03T08:51:03.675Z,3.92
2023-04-03T08:53:35.665Z,4.03
2023-04-03T08:56:10.250Z,3.30
2023-04-03T08:59:02.742Z,1.45
2023-04-03T09:01:41.914Z,1.85
2023-04-03T09:04:20.452Z,2.13
2023-04-03T09:06:57.668Z,3.78
2023-04-03T09:09:36.940Z,1.85
2023-04-03T09:12:18.634Z,4.15
2023-04-03T09:15:00.288Z,1.70
2023-04-03T09:17:58.272Z,2.45
2023-04-03T09:20:46.989Z,2.08
2023-04-03T09:23:53.266Z,2.83
2023-04-03T09:26:27.298Z,3.65
2023-04-03T09:29:00.606Z,1.40
2023-04-03T09:31:36.481Z,1.48
2023-04-03T09:34:10.882Z,4.50
2023-04-03T09:36:45.745Z,5.82
2023-04-03T09:39:19.985Z,3.05
2023-04-03T09:42:19.429Z,2.20
2023-04-03T09:45:07.768Z,4.22
2023-04-03T09:47:37.363Z,6.93
2023-04-03T09:50:14.121Z,2.53
2023-04-03T09:52:43.954Z,6.53
2023-04-03T09:57:59.205Z,3.10
2023-04-03T10:00:29.521Z,3.45
2023-04-03T10:02:58.160Z,2.42
2023-04-03T10:05:44.103Z,5.40
2023-04-03T10:08:14.032Z,5.72
2023-04-03T10:10:43.572Z,4.07
2023-04-03T10:13:12.213Z,3.42
2023-04-03T10:15:47.714Z,3.67
2023-04-03T10:18:45.756Z,2.17
2023-04-03T10:21:35.653Z,2.63
2023-04-03T10:24:15.637Z,4.90
2023-04-03T10:27:04.350Z,1.27
2023-04-03T10:29:51.606Z,3.90
2023-04-03T10:32:24.612Z,4.68
2023-04-03T10:35:05.081Z,4.43
2023-04-03T10:38:02.218Z,2.05
2023-04-03T10:40:48.955Z,10.25
2023-04-03T10:43:22.756Z,3.25
2023-04-03T10:46:36.553Z,2.22
2023-04-03T10:49:28.250Z,4.28
2023-04-03T10:52:02.140Z,3.75
2023-04-03T10:54:56.459Z,3.85
2023-04-03T10:57:25.886Z,6.35
2023-04-03T11:00:00.784Z,3.38
2023-04-03T11:02:45.402Z,4.38
2023-04-03T11:05:45.094Z,2.75
2023-04-03T11:08:19.137Z,5.72
2023-04-03T11:10:51.083Z,4.25
2023-04-03T11:13:27.715Z,3.47
2023-04-03T11:15:56.427Z,4.13
2023-04-03T11:18:41.085Z,2.50
2023-04-03T11:21:21.285Z,3.17
2023-04-03T11:26:21.919Z,3.38
2023-04-03T11:28:57.276Z,4.93
2023-04-03T11:31:39.670Z,2.55
2023-04-03T11:34:25.196Z,2.83
2023-04-03T11:36:56.683Z,3.65
2023-04-03T11:39:29.338Z,3.42
2023-04-03T11:42:34.249Z,4.82
2023-04-03T11:45:25.652Z,1.40
2023-04-03T11:48:04.994Z,3.90
2023-04-03T11:50:43.376Z,2.47
2023-04-03T11:53:13.801Z,2.70
2023-04-03T11:55:51.901Z,1.90
2023-04-03T11:58:20.465Z,1.63
2023-04-03T12:00:52.349Z,1.85
2023-04-03T12:03:30.364Z,3.40
2023-04-03T12:06:08.039Z,6.88
2023-04-03T12:08:42.485Z,2.67
2023-04-03T12:11:09.528Z,5.18
2023-04-03T12:13:37.752Z,1.73
2023-04-03T12:16:25.828Z,5.85
2023-04-03T12:18:53.413Z,4.75
2023-04-03T12:21:25.372Z,4.43
2023-04-03T12:24:27.500Z,6.28
2023-04-03T12:27:00.540Z,3.45
2023-04-03T12:29:34.083Z,0.88
2023-04-03T12:32:25.947Z,10.90
2023-04-03T12:35:21.718Z,4.03
2023-04-03T12:37:51.978Z,6.80
2023-04-03T12:40:50.545Z,4.47
2023-04-03T12:43:40.126Z,4.25
2023-04-03T12:46:17.001Z,2.90
2023-04-03T12:48:51.371Z,0.75
2023-04-03T12:51:29.506Z,3.70
2023-04-03T12:54:04.503Z,4.60
2023-04-03T12:56:33.924Z,12.55
2023-04-03T12:59:17.361Z,2.30
2023-04-03T13:01:45.558Z,1.17
2023-04-03T13:04:13.626Z,2.58
2023-04-03T13:06:44.791Z,1.63
2023-04-03T13:09:26.368Z,3.25
2023-04-03T13:12:02.601Z,0.90
2023-04-03T13:14:31.757Z,4.03
2023-04-03T13:19:29.931Z,3.95
2023-04-03T13:22:06.130Z,1.45
2023-04-03T13:24:37.697Z,0.70
2023-04-03T13:27:08.153Z,4.90
2023-04-03T13:29:37.816Z,7.53
2023-04-03T13:32:07.274Z,3.03
2023-04-03T13:34:45.879Z,8.90
2023-04-03T13:37:56.612Z,6.82
2023-04-03T13:40:30.174Z,0.55
2023-04-03T13:43:07.670Z,3.92
2023-04-03T13:45:36.005Z,2.28
2023-04-03T13:48:24.067Z,5.10
2023-04-03T13:50:57.915Z,4.47
2023-04-03T13:53:27.141Z,3.25
2023-04-03T13:55:58.554Z,3.33
2023-04-03T13:58:30.753Z,3.95
2023-04-03T14:01:19.531Z,1.85
2023-04-03T14:04:00.754Z,4.18
2023-04-03T14:06:29.850Z,4.55
2023-04-03T14:08:57.353Z,1.65
2023-04-03T14:11:31.144Z,3.17
2023-04-03T14:14:06.852Z,2.38
2023-04-03T14:16:39.822Z,2.45
2023-04-03T14:19:07.698Z,6.05
2023-04-03T14:21:34.841Z,3.10
2023-04-03T14:24:02.611Z,3.53
2023-04-03T14:29:16.944Z,1.05
2023-04-03T14:31:46.871Z,4.90
2023-04-03T14:34:16.513Z,4.03
2023-04-03T14:36:45.711Z,0.82
2023-04-03T14:39:19.921Z,4.50
2023-04-03T14:41:47.748Z,2.47
2023-04-03T14:44:16.054Z,1.92
2023-04-03T14:46:56.054Z,1.33
2023-04-03T14:49:30.836Z,1.90
2023-04-03T14:51:58.894Z,3.03
2023-04-03T14:54:30.118Z,2.58
2023-04-03T14:57:00.523Z,1.58
2023-04-03T14:59:31.081Z,1.58
2023-04-03T15:01:58.540Z,2.45
2023-04-03T15:04:27.265Z,3.47
2023-04-03T15:06:55.405Z,3.05
2023-04-03T15:09:26.384Z,2.37
2023-04-03T15:11:56.225Z,1.95
2023-04-03T15:14:35.687Z,2.22
2023-04-03T15:17:15.670Z,3.17
2023-04-03T15:19:43.971Z,2.40
2023-04-03T15:22:20.215Z,2.25
2023-04-03T15:24:59.134Z,4.63
2023-04-03T15:27:29.328Z,1.92
2023-04-03T15:29:57.050Z,5.90
2023-04-03T15:32:24.310Z,2.15
2023-04-03T15:34:55.970Z,2.00
2023-04-03T15:37:24.703Z,2.05
2023-04-03T15:39:52.478Z,0.88
2023-04-03T15:42:20.016Z,1.60
2023-04-03T15:44:47.756Z,4.85
2023-04-03T15:47:15.619Z,2.08
2023-04-03T15:49:43.580Z,1.67
2023-04-03T15:52:11.094Z,2.15
2023-04-03T15:54:38.610Z,4.05
2023-04-03T15:57:06.045Z,3.35
2023-04-03T15:59:33.732Z,3.65
2023-04-03T16:02:04.780Z,5.43
2023-04-03T16:04:34.469Z,4.93
2023-04-03T16:07:03.792Z,3.25
2023-04-03T16:12:02.798Z,2.95
2023-04-03T16:14:36.604Z,2.00
2023-04-03T16:17:04.039Z,1.83
2023-04-03T16:19:31.901Z,4.00
2023-04-03T16:21:59.317Z,5.80
2023-04-03T16:24:27.220Z,4.00
2023-04-03T16:26:54.769Z,4.28
2023-04-03T16:29:22.285Z,4.50
2023-04-03T16:31:49.678Z,4.35
2023-04-03T16:34:17.639Z,4.35
2023-04-03T16:36:45.080Z,63.08
2023-04-03T16:39:12.821Z,4.32
2023-04-03T16:41:40.897Z,12.63
2023-04-03T16:44:08.885Z,7.35
2023-04-03T16:46:36.374Z,3.10
2023-04-03T16:49:05.175Z,7.43
2023-04-03T16:51:33.040Z,4.55
2023-04-03T16:54:00.927Z,4.65
2023-04-03T16:56:28.354Z,4.22
2023-04-03T16:58:56.160Z,6.32
2023-04-03T17:01:23.876Z,3.72
2023-04-03T17:03:59.050Z,3.17
2023-04-03T17:06:26.316Z,2.58
2023-04-03T17:08:54.132Z,3.38
2023-04-03T17:11:28.963Z,11.20
2023-04-03T17:13:56.606Z,2.10
2023-04-03T17:16:25.240Z,8.20
2023-04-03T17:18:54.170Z,2.17
2023-04-03T17:21:22.089Z,3.72
2023-04-03T17:23:59.568Z,1.83
2023-04-03T17:26:27.904Z,4.30
2023-04-03T17:28:57.239Z,3.95
2023-04-03T17:31:24.846Z,5.55
2023-04-03T17:33:52.872Z,2.60
2023-04-03T17:36:20.378Z,6.70
2023-04-03T17:38:48.852Z,8.85
2023-04-03T17:41:16.324Z,5.57
2023-04-03T17:43:44.135Z,2.40
2023-04-03T17:46:11.963Z,3.20
2023-04-03T17:48:41.703Z,3.10
2023-04-03T17:51:14.778Z,2.22
2023-04-03T17:53:45.280Z,6.03
2023-04-03T17:56:19.772Z,5.78
2023-04-03T17:58:47.895Z,5.78
2023-04-03T18:01:20.242Z,3.08
2023-04-03T18:03:50.335Z,2.15
2023-04-03T18:08:56.162Z,3.55
2023-04-03T18:11:30.161Z,2.75
2023-04-03T18:14:02.478Z,2.75
2023-04-03T18:16:31.341Z,4.05
2023-04-03T18:19:17.733Z,6.43
2023-04-03T18:21:48.077Z,5.18
2023-04-03T18:24:18.506Z,3.10
2023-04-03T18:26:49.983Z,3.00
2023-04-03T18:29:18.211Z,2.42
2023-04-03T18:31:48.801Z,4.53
2023-04-03T18:34:16.985Z,4.55
2023-04-03T18:36:44.979Z,2.55
2023-04-03T18:39:13.283Z,3.92
2023-04-03T18:41:41.858Z,2.47
2023-04-03T18:44:14.385Z,5.00
2023-04-03T18:46:41.983Z,3.03
2023-04-03T18:49:11.548Z,6.07
2023-04-03T18:51:39.839Z,5.03
2023-04-03T18:54:10.047Z,4.82
2023-04-03T18:56:38.056Z,5.65
2023-04-03T18:59:06.208Z,8.07
2023-04-03T19:01:34.878Z,7.68
2023-04-03T19:04:03.154Z,7.30
2023-04-03T19:06:30.981Z,8.60
2023-04-03T19:08:59.681Z,4.25
2023-04-03T19:11:30.094Z,6.65
2023-04-03T19:14:14.515Z,5.35
2023-04-03T19:16:43.396Z,5.10
2023-04-03T19:19:12.343Z,2.78
2023-04-03T19:21:41.733Z,1.80
2023-04-03T19:24:13.988Z,3.03
2023-04-03T19:26:42.904Z,4.85
2023-04-03T19:29:11.595Z,5.82
2023-04-03T19:31:40.602Z,2.78
2023-04-03T19:34:09.421Z,2.95
2023-04-03T19:36:37.997Z,4.28
2023-04-03T19:39:06.625Z,4.22
2023-04-03T19:41:36.065Z,5.50
2023-04-03T19:44:05.765Z,3.53
2023-04-03T19:46:33.823Z,2.72
2023-04-03T19:49:02.320Z,6.68
2023-04-03T19:51:30.011Z,8.57
2023-04-03T19:53:58.592Z,7.63
2023-04-03T19:56:27.316Z,4.07
2023-04-03T19:58:55.631Z,4.35
2023-04-03T20:01:24.778Z,5.40
2023-04-03T20:03:52.822Z,3.00
2023-04-03T20:06:19.938Z,8.27
2023-04-03T20:08:47.913Z,7.03
2023-04-03T20:11:15.460Z,6.22
2023-04-03T20:13:43.125Z,3.63
2023-04-03T20:16:11.001Z,2.80
2023-04-03T20:18:39.580Z,5.32
2023-04-03T20:21:09.421Z,9.40
2023-04-03T20:23:37.590Z,5.50
2023-04-03T20:26:10.932Z,4.72
2023-04-03T20:28:43.651Z,5.93
2023-04-03T20:31:12.754Z,3.88
2023-04-03T20:33:40.254Z,4.63
2023-04-03T20:36:07.773Z,9.35
2023-04-03T20:38:35.325Z,5.50
2023-04-03T20:41:02.674Z,2.60
2023-04-03T20:43:30.149Z,6.85
2023-04-03T20:46:01.497Z,2.80
2023-04-03T20:48:31.238Z,2.25
2023-04-03T20:50:58.954Z,4.05
2023-04-03T20:53:27.258Z,3.65
2023-04-03T20:56:04.149Z,3.72
2023-04-03T20:58:33.064Z,4.75
2023-04-03T21:01:00.298Z,4.05
2023-04-03T21:03:30.373Z,5.05
2023-04-03T21:09:05.905Z,4.07
2023-04-03T21:12:10.877Z,3.25
2023-04-03T21:15:15.713Z,8.05
2023-04-03T21:18:01.612Z,3.78
2023-04-03T21:20:28.958Z,5.03
2023-04-03T21:22:56.203Z,9.40
2023-04-03T21:25:23.608Z,4.63
2023-04-03T21:27:52.320Z,4.53
2023-04-03T21:30:19.686Z,2.67
2023-04-03T21:32:46.771Z,2.65
2023-04-03T21:35:14.688Z,5.93
2023-04-03T21:37:41.838Z,4.97
2023-04-03T21:40:09.392Z,4.90
2023-04-03T21:42:37.310Z,5.05
2023-04-03T21:45:05.117Z,3.65
2023-04-03T21:47:32.624Z,7.47
2023-04-03T21:50:00.042Z,2.45
2023-04-03T21:52:27.426Z,5.07
2023-04-03T21:54:54.731Z,2.92
2023-04-03T21:57:22.788Z,7.57
2023-04-03T21:59:50.184Z,4.32
2023-04-03T22:02:17.261Z,4.97
2023-04-03T22:04:45.729Z,2.22
2023-04-03T22:07:13.400Z,3.60
2023-04-03T22:09:41.087Z,3.47
2023-04-03T22:12:08.914Z,3.97
2023-04-03T22:14:36.539Z,6.43
2023-04-03T22:17:04.124Z,4.85
2023-04-03T22:19:31.516Z,7.15
2023-04-03T22:21:58.477Z,2.97
2023-04-03T22:24:25.753Z,5.25
2023-04-03T22:26:53.391Z,4.47
2023-04-03T22:29:21.058Z,2.22
2023-04-03T22:31:48.119Z,8.02
2023-04-03T22:34:16.681Z,7.35
2023-04-03T22:36:43.654Z,5.85
2023-04-03T22:39:12.267Z,3.95
2023-04-03T22:41:39.326Z,3.58
2023-04-03T22:44:06.887Z,4.47
2023-04-03T22:46:33.931Z,5.47
2023-04-03T22:49:01.461Z,5.78
2023-04-03T22:51:28.606Z,5.65
2023-04-03T22:53:55.882Z,7.72
2023-04-03T22:56:25.319Z,6.13
2023-04-03T22:58:53.420Z,5.57
2023-04-03T23:01:22.750Z,5.05
2023-04-03T23:03:50.340Z,4.60
2023-04-03T23:06:17.316Z,8.15
2023-04-03T23:08:44.828Z,5.35
2023-04-03T23:11:12.124Z,4.90
2023-04-03T23:13:39.517Z,5.78
2023-04-03T23:16:07.094Z,6.07
2023-04-03T23:18:34.447Z,7.55
2023-04-03T23:21:03.572Z,4.97
2023-04-03T23:23:31.891Z,6.78
2023-04-03T23:26:02.766Z,4.55
2023-04-03T23:28:30.427Z,5.80
2023-04-03T23:31:02.220Z,9.38
2023-04-03T23:33:31.725Z,4.38
2023-04-03T23:36:00.727Z,5.03
2023-04-03T23:38:28.423Z,2.80
2023-04-03T23:40:55.971Z,7.95
2023-04-03T23:43:23.498Z,4.40
2023-04-03T23:45:50.758Z,3.80
2023-04-03T23:48:18.223Z,3.63
2023-04-03T23:50:45.796Z,1.95
2023-04-03T23:53:13.678Z,3.20
2023-04-03T23:55:41.822Z,6.32
2023-04-03T23:58:09.510Z,12.18
